Time;durP1;ratioP1;P1;durP2;ratioP2;P2;SDS_P1;SDS_P2;PMS_P1;PMS_P2;Temp;Humidity;BMP_temperature;BMP_pressure;BME280_temperature;BME280_humidity;BME280_pressure;Samples;Min_cycle;Max_cycle;Signal;HPM_P1;HPM_P2
2022/05/14 00:00:24;;;;;;;9.47;8.67;;;11.50;99.90;;;;;;5088958;28;20293;-79
2022/05/14 00:02:51;;;;;;;9.00;8.30;;;11.40;99.90;;;;;;5088903;28;20258;-79
2022/05/14 00:05:19;;;;;;;9.10;8.30;;;11.40;99.90;;;;;;5079976;28;20234;-79
2022/05/14 00:07:46;;;;;;;9.80;8.87;;;11.40;99.90;;;;;;5081513;28;20197;-79
2022/05/14 00:10:15;;;;;;;9.40;8.47;;;11.40;99.90;;;;;;5080673;28;20200;-79
2022/05/14 00:15:26;;;;;;;9.50;8.70;;;11.40;99.90;;;;;;5080985;28;20214;-79
2022/05/14 00:17:54;;;;;;;8.60;7.93;;;11.40;99.90;;;;;;5078840;28;20200;-77
2022/05/14 00:20:23;;;;;;;8.97;8.27;;;11.30;99.90;;;;;;5081648;28;20545;-79
2022/05/14 00:22:50;;;;;;;9.40;8.60;;;11.30;99.90;;;;;;5077951;28;20199;-79
2022/05/14 00:25:19;;;;;;;8.70;8.07;;;11.40;99.90;;;;;;5075386;28;20221;-79
2022/05/14 00:27:48;;;;;;;8.87;8.07;;;11.30;99.90;;;;;;5081596;28;20666;-79
2022/05/14 00:30:16;;;;;;;9.47;8.60;;;11.40;99.90;;;;;;5079454;28;20286;-79
2022/05/14 00:32:44;;;;;;;9.87;8.87;;;11.40;99.90;;;;;;5079510;28;20222;-79
2022/05/14 00:35:12;;;;;;;8.83;8.20;;;11.40;99.90;;;;;;5079191;28;20257;-80
2022/05/14 00:37:39;;;;;;;9.07;8.37;;;11.40;99.90;;;;;;5080099;28;20252;-79
2022/05/14 00:40:11;;;;;;;9.20;8.37;;;11.40;99.90;;;;;;5082592;28;20277;-79
2022/05/14 00:42:39;;;;;;;10.00;9.00;;;11.30;99.90;;;;;;5073107;28;20274;-79
2022/05/14 00:45:08;;;;;;;9.73;8.83;;;11.30;99.90;;;;;;5089022;28;20242;-79
2022/05/14 00:47:38;;;;;;;10.40;9.50;;;11.30;99.90;;;;;;5092177;28;20253;-78
2022/05/14 00:50:09;;;;;;;9.77;8.93;;;11.30;99.90;;;;;;5093117;28;20616;-79
2022/05/14 00:52:36;;;;;;;10.03;9.17;;;11.30;99.90;;;;;;5096167;28;20205;-79
2022/05/14 00:55:06;;;;;;;9.90;9.10;;;11.20;99.90;;;;;;5094828;28;20224;-79
2022/05/14 00:57:37;;;;;;;11.03;9.93;;;11.20;99.90;;;;;;5096155;28;20218;-79
2022/05/14 01:00:11;;;;;;;10.63;9.63;;;11.20;99.90;;;;;;5096148;28;20188;-79
2022/05/14 01:02:40;;;;;;;9.23;8.53;;;11.10;99.90;;;;;;5095916;28;20545;-79
2022/05/14 01:05:09;;;;;;;10.20;9.30;;;11.10;99.90;;;;;;5078277;28;20245;-79
2022/05/14 01:07:38;;;;;;;10.57;9.77;;;11.10;99.90;;;;;;5083451;28;20190;-78
2022/05/14 01:10:09;;;;;;;10.60;9.70;;;11.10;99.90;;;;;;5078919;28;20208;-78
2022/05/14 01:12:41;;;;;;;10.17;9.37;;;11.10;99.90;;;;;;5070270;28;20213;-79
2022/05/14 01:15:15;;;;;;;11.20;10.20;;;11.20;99.90;;;;;;5079818;28;20664;-79
2022/05/14 01:17:43;;;;;;;9.90;9.10;;;11.20;99.90;;;;;;5075305;28;20213;-79
2022/05/14 01:20:11;;;;;;;9.57;8.93;;;11.20;99.90;;;;;;5080965;28;20361;-79
2022/05/14 01:23:00;;;;;;;10.43;9.53;;;11.20;99.90;;;;;;5082470;28;20199;-78
2022/05/14 01:28:20;;;;;;;10.13;9.23;;;11.10;99.90;;;;;;5081502;28;20191;-79
2022/05/14 01:30:52;;;;;;;9.77;9.07;;;11.10;99.90;;;;;;5081601;28;20199;-78
2022/05/14 01:33:20;;;;;;;10.20;9.30;;;11.00;99.90;;;;;;5090257;28;20289;-78
2022/05/14 01:35:49;;;;;;;10.70;9.80;;;11.00;99.90;;;;;;5081871;28;20211;-79
2022/05/14 01:38:20;;;;;;;10.23;9.33;;;11.00;99.90;;;;;;5083000;28;20674;-79
2022/05/14 01:40:47;;;;;;;10.97;10.07;;;11.00;99.90;;;;;;5082962;28;20195;-79
2022/05/14 01:43:15;;;;;;;11.17;10.20;;;10.90;99.90;;;;;;5084148;28;20199;-79
2022/05/14 01:45:44;;;;;;;11.27;10.23;;;10.90;99.90;;;;;;5078008;28;20222;-79
2022/05/14 01:48:11;;;;;;;10.70;9.90;;;10.90;99.90;;;;;;5078309;28;20191;-78
2022/05/14 01:50:39;;;;;;;11.10;10.03;;;10.80;99.90;;;;;;5086683;28;20251;-79
2022/05/14 01:53:06;;;;;;;11.83;10.67;;;10.80;99.90;;;;;;5080773;28;20210;-79
2022/05/14 01:55:34;;;;;;;10.97;10.03;;;10.80;99.90;;;;;;5084353;28;20238;-79
2022/05/14 01:58:36;;;;;;;10.83;9.83;;;10.80;99.90;;;;;;5081438;28;20186;-79
2022/05/14 02:00:51;;;;;;;10.93;10.03;;;10.70;99.90;;;;;;5074358;28;20183;-81
2022/05/14 02:03:18;;;;;;;10.57;9.73;;;10.70;99.90;;;;;;5083697;28;20568;-78
2022/05/14 02:05:45;;;;;;;11.30;10.40;;;10.60;99.90;;;;;;5078992;28;20702;-79
2022/05/14 02:08:12;;;;;;;10.97;10.07;;;10.60;99.90;;;;;;5083391;28;20292;-78
2022/05/14 02:10:40;;;;;;;10.87;9.90;;;10.60;99.90;;;;;;5077334;28;20228;-77
2022/05/14 02:13:07;;;;;;;10.20;9.40;;;10.60;99.90;;;;;;5069772;28;20323;-77
2022/05/14 02:15:34;;;;;;;11.07;10.17;;;10.60;99.90;;;;;;5085317;28;20215;-77
2022/05/14 02:18:02;;;;;;;10.80;9.90;;;10.60;99.90;;;;;;5079631;28;20331;-79
2022/05/14 02:20:30;;;;;;;11.67;10.70;;;10.60;99.90;;;;;;5082080;28;20293;-79
2022/05/14 02:22:58;;;;;;;11.00;10.20;;;10.60;99.90;;;;;;5087748;28;20188;-78
2022/05/14 02:25:25;;;;;;;11.10;10.00;;;10.50;99.90;;;;;;5083741;28;20213;-79
2022/05/14 02:27:52;;;;;;;6.37;5.00;;;10.50;99.90;;;;;;5087636;28;20642;-79
2022/05/14 02:30:19;;;;;;;11.57;5.47;;;10.40;99.90;;;;;;5082228;28;20229;-78
2022/05/14 02:32:46;;;;;;;5.87;4.77;;;10.40;99.90;;;;;;5083564;28;20225;-77
2022/05/14 02:35:14;;;;;;;9.50;8.60;;;10.30;99.90;;;;;;5082455;28;20242;-78
2022/05/14 02:37:41;;;;;;;8.57;7.87;;;10.30;99.90;;;;;;5079889;28;20200;-78
2022/05/14 02:40:09;;;;;;;10.97;5.53;;;10.30;99.90;;;;;;5077185;28;20194;-79
2022/05/14 02:42:36;;;;;;;7.40;5.27;;;10.30;99.90;;;;;;5068919;28;20197;-78
2022/05/14 02:45:04;;;;;;;7.60;5.03;;;10.30;99.90;;;;;;5084042;28;20274;-78
2022/05/14 02:47:31;;;;;;;9.23;5.57;;;10.20;99.90;;;;;;5078404;28;20205;-78
2022/05/14 02:49:58;;;;;;;6.27;5.20;;;10.20;99.90;;;;;;5080102;28;20203;-77
2022/05/14 02:52:27;;;;;;;6.83;5.27;;;10.20;99.90;;;;;;5081549;28;20214;-79
2022/05/14 02:54:54;;;;;;;7.30;6.63;;;10.10;99.90;;;;;;5080432;28;20207;-79
2022/05/14 02:57:21;;;;;;;6.83;5.03;;;10.10;99.90;;;;;;5070269;28;20203;-78
2022/05/14 02:59:48;;;;;;;8.07;5.23;;;10.10;99.90;;;;;;5078487;28;20273;-79
2022/05/14 03:02:15;;;;;;;5.80;5.20;;;10.10;99.90;;;;;;5079849;28;20201;-78
2022/05/14 03:04:44;;;;;;;7.47;4.90;;;10.00;99.90;;;;;;5072137;28;20249;-79
2022/05/14 03:07:13;;;;;;;10.57;9.70;;;10.00;99.90;;;;;;5070892;28;20287;-78
2022/05/14 03:09:42;;;;;;;11.00;10.20;;;9.90;99.90;;;;;;5076418;28;20561;-78
2022/05/14 03:12:12;;;;;;;10.67;9.80;;;9.90;99.90;;;;;;5076460;28;20210;-79
2022/05/14 03:14:40;;;;;;;7.63;5.40;;;10.00;99.90;;;;;;5079721;28;20234;-78
2022/05/14 03:17:09;;;;;;;5.80;4.93;;;9.90;99.90;;;;;;5075202;28;20195;-80
2022/05/14 03:19:36;;;;;;;5.73;5.10;;;9.80;99.90;;;;;;5088061;28;20190;-80
2022/05/14 03:22:04;;;;;;;5.13;4.63;;;9.80;99.90;;;;;;5083107;28;20251;-80
2022/05/14 03:24:32;;;;;;;6.27;5.00;;;9.80;99.90;;;;;;5081250;28;20220;-80
2022/05/14 03:27:01;;;;;;;6.27;4.90;;;9.70;99.90;;;;;;5070569;28;20190;-80
2022/05/14 03:29:28;;;;;;;5.70;5.10;;;9.60;99.90;;;;;;5085103;28;20199;-80
2022/05/14 03:31:57;;;;;;;7.50;5.20;;;9.60;99.90;;;;;;5078821;28;20694;-80
2022/05/14 03:34:25;;;;;;;5.33;4.53;;;9.60;99.90;;;;;;5070924;28;20206;-79
2022/05/14 03:36:52;;;;;;;5.97;5.33;;;9.50;99.90;;;;;;5075577;28;20186;-79
2022/05/14 03:39:19;;;;;;;8.30;7.60;;;9.40;99.90;;;;;;5084760;28;20690;-79
2022/05/14 03:41:46;;;;;;;9.30;5.80;;;9.40;99.90;;;;;;5083665;28;20197;-80
2022/05/14 03:44:15;;;;;;;6.40;5.43;;;9.30;99.90;;;;;;5085223;28;20712;-80
2022/05/14 03:46:43;;;;;;;9.77;5.90;;;9.30;99.90;;;;;;5077296;28;20281;-80
2022/05/14 03:49:10;;;;;;;11.77;10.87;;;9.30;99.90;;;;;;5085655;28;20239;-79
2022/05/14 03:51:38;;;;;;;7.73;5.17;;;9.30;99.90;;;;;;5080625;28;20635;-79
2022/05/14 03:54:06;;;;;;;6.20;5.60;;;9.30;99.90;;;;;;5083331;28;20716;-79
2022/05/14 03:56:34;;;;;;;5.90;5.13;;;9.30;99.90;;;;;;5078388;28;20674;-80
2022/05/14 03:59:03;;;;;;;5.80;5.20;;;9.30;99.90;;;;;;5086089;28;20284;-79
2022/05/14 04:01:31;;;;;;;8.20;5.50;;;9.40;99.90;;;;;;5080625;28;20190;-80
2022/05/14 04:03:58;;;;;;;9.47;5.83;;;9.40;99.90;;;;;;5076465;28;20206;-79
2022/05/14 04:06:25;;;;;;;6.73;5.83;;;9.40;99.90;;;;;;5081569;28;20201;-79
2022/05/14 04:08:52;;;;;;;8.57;5.93;;;9.40;99.90;;;;;;5083707;28;20693;-81
2022/05/14 04:11:20;;;;;;;7.77;5.77;;;9.50;99.90;;;;;;5070975;28;20203;-80
2022/05/14 04:13:47;;;;;;;6.73;5.57;;;9.60;99.90;;;;;;5071120;28;20218;-80
2022/05/14 04:16:15;;;;;;;7.80;5.67;;;9.50;99.90;;;;;;5079959;28;20194;-81
2022/05/14 04:18:43;;;;;;;7.17;5.87;;;9.50;99.90;;;;;;5077494;28;20201;-80
2022/05/14 04:21:10;;;;;;;12.40;11.23;;;9.60;99.90;;;;;;5076046;28;20194;-81
2022/05/14 04:23:38;;;;;;;13.40;12.20;;;9.60;99.90;;;;;;5071459;28;20729;-84
2022/05/14 04:26:06;;;;;;;13.20;12.00;;;9.60;99.90;;;;;;5079700;28;20263;-80
2022/05/14 04:28:34;;;;;;;8.43;6.03;;;9.70;99.90;;;;;;5101642;28;20199;-80
2022/05/14 04:31:01;;;;;;;6.67;5.60;;;9.90;99.90;;;;;;5086397;28;20612;-80
2022/05/14 04:33:29;;;;;;;7.13;5.77;;;9.90;99.90;;;;;;5074749;28;20249;-80
2022/05/14 04:35:58;;;;;;;7.37;5.73;;;9.90;99.90;;;;;;5084270;28;20209;-80
2022/05/14 04:38:26;;;;;;;6.83;5.43;;;9.90;99.90;;;;;;5075088;28;20198;-81
2022/05/14 04:40:53;;;;;;;6.53;5.27;;;10.00;99.90;;;;;;5077821;28;20201;-80
2022/05/14 04:43:21;;;;;;;6.63;5.13;;;10.20;99.90;;;;;;5074623;28;20249;-81
2022/05/14 04:45:48;;;;;;;5.80;5.20;;;10.30;99.90;;;;;;5078439;28;20221;-82
2022/05/14 04:48:15;;;;;;;6.60;4.80;;;10.40;99.90;;;;;;5077892;28;20730;-81
2022/05/14 04:50:45;;;;;;;7.50;5.53;;;10.50;99.90;;;;;;5079822;28;20229;-81
2022/05/14 04:53:15;;;;;;;11.17;10.37;;;10.80;99.90;;;;;;5078529;28;20228;-81
2022/05/14 04:55:42;;;;;;;5.13;4.63;;;11.00;99.90;;;;;;5076168;28;20218;-81
2022/05/14 04:58:11;;;;;;;11.67;10.67;;;11.40;99.90;;;;;;5078786;28;20191;-81
2022/05/14 05:00:39;;;;;;;11.93;11.07;;;11.50;99.90;;;;;;5077745;28;20281;-80
2022/05/14 05:03:17;;;;;;;11.47;10.67;;;11.70;99.90;;;;;;5081534;28;20277;-82
2022/05/14 05:05:45;;;;;;;11.67;10.77;;;11.80;99.90;;;;;;5068874;28;20211;-80
2022/05/14 05:08:14;;;;;;;11.10;10.20;;;11.80;99.90;;;;;;5071616;28;20688;-79
2022/05/14 05:10:42;;;;;;;5.30;4.80;;;11.90;99.90;;;;;;5079443;28;20227;-80
2022/05/14 05:13:11;;;;;;;9.43;8.63;;;12.00;99.90;;;;;;5080620;28;20943;-80
2022/05/14 05:15:38;;;;;;;7.43;6.83;;;12.20;99.90;;;;;;5081397;28;20211;-79
2022/05/14 05:18:05;;;;;;;7.27;6.67;;;12.40;99.90;;;;;;5078045;28;20287;-79
2022/05/14 05:20:32;;;;;;;6.07;5.43;;;12.50;99.90;;;;;;5087049;28;20200;-80
2022/05/14 05:22:59;;;;;;;5.50;5.00;;;12.50;99.90;;;;;;5080865;28;20304;-78
2022/05/14 05:25:28;;;;;;;5.37;4.87;;;12.70;99.90;;;;;;5087138;28;20229;-80
2022/05/14 05:27:55;;;;;;;5.50;5.00;;;13.00;99.90;;;;;;5082772;28;20195;-79
2022/05/14 05:30:22;;;;;;;5.83;5.27;;;13.20;99.90;;;;;;5078127;28;20226;-79
2022/05/14 05:32:49;;;;;;;5.70;5.10;;;13.50;99.90;;;;;;5082732;28;20690;-80
2022/05/14 05:35:16;;;;;;;5.43;5.03;;;13.80;99.90;;;;;;5077178;28;20695;-80
2022/05/14 05:37:44;;;;;;;5.80;5.20;;;14.00;99.90;;;;;;5091417;28;20195;-81
2022/05/14 05:40:12;;;;;;;6.17;5.57;;;14.20;99.90;;;;;;5076415;28;20238;-82
2022/05/14 05:42:41;;;;;;;7.30;6.60;;;14.70;99.90;;;;;;5091178;28;20193;-78
2022/05/14 05:45:09;;;;;;;6.40;5.90;;;15.20;99.90;;;;;;5085117;28;20231;-79
2022/05/14 05:47:36;;;;;;;7.73;7.10;;;15.70;99.90;;;;;;5088403;28;20200;-81
2022/05/14 05:50:04;;;;;;;4.07;3.43;;;16.00;99.90;;;;;;5086969;28;20287;-81
2022/05/14 05:52:32;;;;;;;7.77;7.17;;;15.90;99.90;;;;;;5089106;28;20235;-82
2022/05/14 05:57:45;;;;;;;4.10;3.60;;;15.60;99.90;;;;;;5077983;28;20300;-80
2022/05/14 06:00:21;;;;;;;4.20;3.27;;;15.50;99.90;;;;;;5086104;28;21674;-79
2022/05/14 06:02:49;;;;;;;4.83;3.50;;;15.40;99.90;;;;;;5087809;28;20186;-80
2022/05/14 06:05:16;;;;;;;4.20;3.63;;;15.40;99.90;;;;;;5081652;28;20622;-80
2022/05/14 06:07:44;;;;;;;4.57;3.30;;;15.30;99.90;;;;;;5084960;28;20190;-81
2022/05/14 06:10:15;;;;;;;5.47;3.10;;;15.40;99.90;;;;;;5083166;28;20273;-81
2022/05/14 06:12:44;;;;;;;3.43;3.13;;;15.40;99.90;;;;;;5084721;28;20216;-81
2022/05/14 06:15:14;;;;;;;5.97;5.47;;;15.50;99.90;;;;;;5068143;28;20312;-80
2022/05/14 06:17:43;;;;;;;5.63;3.23;;;15.50;99.90;;;;;;5075769;28;20731;-81
2022/05/14 06:20:13;;;;;;;3.43;2.93;;;15.40;99.90;;;;;;5073729;28;20206;-80
2022/05/14 06:22:40;;;;;;;3.33;3.07;;;15.50;99.90;;;;;;5081669;28;20250;-81
2022/05/14 06:25:09;;;;;;;4.37;2.90;;;15.80;99.90;;;;;;5073735;28;20287;-81
2022/05/14 06:27:36;;;;;;;4.87;4.47;;;16.10;99.90;;;;;;5069641;28;21393;-82
2022/05/14 06:30:05;;;;;;;3.80;3.30;;;16.60;99.90;;;;;;5057238;28;20645;-82
2022/05/14 06:32:32;;;;;;;7.00;6.60;;;16.90;99.90;;;;;;5070241;28;20567;-82
2022/05/14 06:34:59;;;;;;;6.10;3.90;;;17.20;99.90;;;;;;5080286;28;20291;-82
2022/05/14 06:37:26;;;;;;;4.73;3.20;;;17.60;99.90;;;;;;5079600;28;20196;-79
2022/05/14 06:39:53;;;;;;;5.70;5.07;;;18.10;99.90;;;;;;5085941;28;20193;-81
2022/05/14 06:42:20;;;;;;;7.47;6.97;;;18.40;99.90;;;;;;5079716;28;20197;-80
2022/05/14 06:44:48;;;;;;;3.30;2.77;;;18.90;99.90;;;;;;5089492;28;20240;-77
2022/05/14 06:47:16;;;;;;;6.27;5.67;;;19.00;99.90;;;;;;5076914;28;20213;-81
2022/05/14 06:49:43;;;;;;;4.33;3.90;;;19.20;99.90;;;;;;5074016;28;20285;-82
2022/05/14 06:52:13;;;;;;;6.73;5.63;;;19.50;99.90;;;;;;5072884;28;20278;-82
2022/05/14 06:54:43;;;;;;;4.17;3.03;;;19.80;99.90;;;;;;5075132;28;20215;-82
2022/05/14 06:57:10;;;;;;;5.50;2.93;;;20.00;99.90;;;;;;5080878;28;20197;-80
2022/05/14 06:59:38;;;;;;;4.93;3.53;;;20.10;99.90;;;;;;5077361;28;20194;-82
2022/05/14 07:02:06;;;;;;;6.23;5.63;;;20.30;99.90;;;;;;5080129;28;20190;-82
2022/05/14 07:07:19;;;;;;;6.60;6.00;;;20.60;99.90;;;;;;5076763;28;20594;-82
2022/05/14 07:09:48;;;;;;;7.23;4.83;;;21.10;99.90;;;;;;5085329;28;20292;-83
2022/05/14 07:12:15;;;;;;;5.73;5.23;;;21.40;99.90;;;;;;5068081;28;20195;-83
2022/05/14 07:14:43;;;;;;;7.00;6.50;;;21.50;99.90;;;;;;5077740;28;20326;-83
2022/05/14 07:17:11;;;;;;;5.07;4.67;;;21.60;99.90;;;;;;5072414;28;20241;-83
2022/05/14 07:19:40;;;;;;;7.07;6.47;;;21.70;99.90;;;;;;5076853;28;20193;-83
2022/05/14 07:22:07;;;;;;;6.00;5.50;;;22.00;99.90;;;;;;5075560;28;20293;-83
2022/05/14 07:24:34;;;;;;;4.97;4.30;;;22.10;99.90;;;;;;5098051;28;20226;-82
2022/05/14 07:27:04;;;;;;;6.37;5.77;;;22.30;99.90;;;;;;5077289;28;20202;-81
2022/05/14 07:29:32;;;;;;;5.93;5.43;;;22.60;99.90;;;;;;5074283;28;20822;-82
2022/05/14 07:31:59;;;;;;;4.10;2.90;;;22.60;99.90;;;;;;5081333;28;20208;-81
2022/05/14 07:34:26;;;;;;;4.63;3.60;;;22.70;99.90;;;;;;5083395;28;20252;-81
2022/05/14 07:36:58;;;;;;;4.97;3.07;;;22.90;99.90;;;;;;5085908;28;20622;-80
2022/05/14 07:39:30;;;;;;;6.53;3.97;;;23.20;99.90;;;;;;5080143;28;20202;-83
2022/05/14 07:42:01;;;;;;;5.47;3.10;;;23.20;99.90;;;;;;5079331;28;20199;-83
2022/05/14 07:44:32;;;;;;;5.70;5.10;;;23.00;99.90;;;;;;5083493;28;20222;-82
2022/05/14 07:47:01;;;;;;;6.33;5.73;;;23.10;99.90;;;;;;5082817;28;20183;-82
2022/05/14 07:49:28;;;;;;;4.70;3.13;;;23.40;99.90;;;;;;5089025;28;20189;-82
2022/05/14 07:51:57;;;;;;;7.03;6.37;;;23.60;99.90;;;;;;5079936;28;20404;-81
2022/05/14 07:54:25;;;;;;;8.97;8.17;;;23.60;99.90;;;;;;5085534;28;20224;-83
2022/05/14 07:56:52;;;;;;;4.43;3.63;;;23.80;99.90;;;;;;5076071;28;20204;-83
2022/05/14 07:59:20;;;;;;;3.47;3.17;;;23.90;99.90;;;;;;5081654;28;20200;-81
2022/05/14 08:01:47;;;;;;;6.97;6.33;;;24.00;99.90;;;;;;5082797;28;20270;-82
2022/05/14 08:04:14;;;;;;;6.67;6.10;;;24.10;99.90;;;;;;5079831;28;20595;-82
2022/05/14 08:06:41;;;;;;;5.93;3.10;;;24.40;99.90;;;;;;5084242;28;20696;-83
2022/05/14 08:09:10;;;;;;;5.20;4.70;;;24.30;99.90;;;;;;5078235;28;20195;-82
2022/05/14 08:11:37;;;;;;;3.47;3.10;;;24.30;99.90;;;;;;5075885;28;20289;-82
2022/05/14 08:14:04;;;;;;;3.03;2.73;;;24.30;99.90;;;;;;5082981;28;20189;-81
2022/05/14 08:16:31;;;;;;;6.00;4.40;;;24.30;99.90;;;;;;5077073;28;20258;-81
2022/05/14 08:19:00;;;;;;;5.23;4.70;;;24.20;99.90;;;;;;5083318;28;20275;-83
2022/05/14 08:24:32;;;;;;;5.00;3.13;;;25.00;99.90;;;;;;5081936;28;20237;-79
2022/05/14 08:27:03;;;;;;;3.90;3.60;;;24.70;99.90;;;;;;5082539;28;20201;-78
2022/05/14 08:29:30;;;;;;;4.33;2.70;;;25.10;99.90;;;;;;5085559;28;20203;-80
2022/05/14 08:31:57;;;;;;;6.37;5.53;;;25.30;99.90;;;;;;5087893;28;20254;-80
2022/05/14 08:34:24;;;;;;;5.80;4.37;;;24.90;99.90;;;;;;5080804;28;20237;-79
2022/05/14 08:36:51;;;;;;;5.00;2.77;;;24.70;99.90;;;;;;5079636;28;20198;-80
2022/05/14 08:39:22;;;;;;;4.77;4.30;;;24.70;99.90;;;;;;5081520;28;20205;-81
2022/05/14 08:41:50;;;;;;;5.03;2.67;;;24.90;99.90;;;;;;5081938;28;20202;-81
2022/05/14 08:44:19;;;;;;;3.43;3.00;;;25.30;99.90;;;;;;5082978;28;20253;-81
2022/05/14 08:46:46;;;;;;;6.87;5.73;;;25.50;99.90;;;;;;5074496;28;20190;-80
2022/05/14 08:49:19;;;;;;;5.77;3.47;;;25.80;99.90;;;;;;5086206;28;20186;-81
2022/05/14 08:51:50;;;;;;;7.43;3.27;;;25.70;99.90;;;;;;5079242;28;20686;-80
2022/05/14 08:54:18;;;;;;;5.47;4.93;;;25.50;99.90;;;;;;5084547;28;20214;-82
2022/05/14 08:56:58;;;;;;;6.33;5.77;;;25.60;99.90;;;;;;5080694;28;20556;-82
2022/05/14 08:59:49;;;;;;;5.90;5.37;;;25.80;99.90;;;;;;5077474;28;20281;-81
2022/05/14 09:02:20;;;;;;;8.37;7.67;;;25.70;99.50;;;;;;5078635;28;20206;-81
2022/05/14 09:04:49;;;;;;;5.50;5.10;;;25.50;99.70;;;;;;5080763;28;20245;-82
2022/05/14 09:07:19;;;;;;;5.57;2.20;;;25.70;99.10;;;;;;5081954;28;20194;-81
2022/05/14 09:09:50;;;;;;;2.10;1.90;;;26.00;97.80;;;;;;5082340;28;20281;-81
2022/05/14 09:12:22;;;;;;;2.77;2.03;;;26.00;96.50;;;;;;5083497;28;20195;-80
2022/05/14 09:14:55;;;;;;;3.17;2.90;;;26.10;97.30;;;;;;5080775;28;20631;-81
2022/05/14 09:17:25;;;;;;;3.40;2.20;;;26.20;97.30;;;;;;5079091;28;20199;-81
2022/05/14 09:19:54;;;;;;;5.10;2.27;;;26.20;96.80;;;;;;5080397;28;20200;-83
2022/05/14 09:22:31;;;;;;;3.70;2.10;;;26.00;98.20;;;;;;5072284;28;20206;-80
2022/05/14 09:25:16;;;;;;;4.10;2.67;;;26.40;97.50;;;;;;5073558;28;20500;-80
2022/05/14 09:27:49;;;;;;;4.28;2.50;;;26.60;97.40;;;;;;5070045;28;20428;-84
2022/05/14 09:30:26;;;;;;;5.17;4.73;;;26.70;98.30;;;;;;5086141;28;20212;-81
2022/05/14 09:32:53;;;;;;;2.60;2.40;;;26.80;97.00;;;;;;5080248;28;20252;-82
2022/05/14 09:35:22;;;;;;;6.90;6.27;;;27.00;96.50;;;;;;5084706;28;20222;-82
2022/05/14 09:37:49;;;;;;;7.40;6.80;;;27.20;97.10;;;;;;5077472;28;20203;-79
2022/05/14 09:40:23;;;;;;;7.03;6.60;;;27.20;96.40;;;;;;5077143;28;20285;-82
2022/05/14 09:42:54;;;;;;;7.70;7.20;;;27.20;96.80;;;;;;5072822;28;20210;-80
2022/05/14 09:45:35;;;;;;;8.30;7.60;;;27.30;96.70;;;;;;5078891;28;20726;-82
2022/05/14 09:48:15;;;;;;;6.80;6.20;;;27.20;96.60;;;;;;5081356;28;20220;-82
2022/05/14 09:50:45;;;;;;;7.30;6.80;;;27.20;95.50;;;;;;5073743;28;20247;-81
2022/05/14 09:53:12;;;;;;;7.77;6.60;;;27.00;96.60;;;;;;5072992;28;20226;-82
2022/05/14 09:56:05;;;;;;;5.73;4.20;;;27.10;95.60;;;;;;5065973;28;20203;-80
2022/05/14 09:58:43;;;;;;;7.43;6.83;;;27.10;95.90;;;;;;5078137;28;20206;-81
2022/05/14 10:01:15;;;;;;;6.37;5.87;;;27.10;96.30;;;;;;5081915;28;20190;-82
2022/05/14 10:03:53;;;;;;;7.13;6.60;;;27.30;96.90;;;;;;5072186;28;20194;-81
2022/05/14 10:06:29;;;;;;;6.80;6.30;;;27.20;97.00;;;;;;5083663;28;20194;-81
2022/05/14 10:09:09;;;;;;;7.23;6.63;;;27.00;95.70;;;;;;5086725;28;20273;-81
2022/05/14 10:11:44;;;;;;;7.53;6.60;;;26.70;95.10;;;;;;5071167;28;20277;-81
2022/05/14 10:14:36;;;;;;;6.93;5.57;;;26.60;96.10;;;;;;5084090;28;20213;-80
2022/05/14 10:17:26;;;;;;;6.23;5.80;;;26.50;96.60;;;;;;5079198;28;20566;-80
2022/05/14 10:20:15;;;;;;;7.57;6.90;;;26.50;97.70;;;;;;5076476;28;20284;-80
2022/05/14 10:28:43;;;;;;;6.83;6.33;;;26.40;97.90;;;;;;5086161;28;20239;-80
2022/05/14 10:31:23;;;;;;;3.77;2.50;;;26.40;96.90;;;;;;5084873;28;20197;-81
2022/05/14 10:33:55;;;;;;;3.83;2.43;;;26.00;98.60;;;;;;5079120;28;20278;-80
2022/05/14 10:36:29;;;;;;;4.10;2.30;;;26.10;98.50;;;;;;5085957;28;20202;-80
2022/05/14 10:39:02;;;;;;;4.33;2.57;;;26.20;99.50;;;;;;5080641;28;20191;-80
2022/05/14 10:41:34;;;;;;;4.83;2.50;;;26.30;97.90;;;;;;5086588;28;20220;-80
2022/05/14 10:44:05;;;;;;;2.77;2.30;;;26.20;97.40;;;;;;5076298;28;20228;-81
2022/05/14 10:46:36;;;;;;;3.97;3.57;;;26.10;97.80;;;;;;5086522;28;20647;-80
2022/05/14 10:49:12;;;;;;;4.05;3.50;;;26.00;96.80;;;;;;5075255;28;20422;-80
2022/05/14 10:51:45;;;;;;;7.10;6.50;;;25.90;98.50;;;;;;5082330;28;20272;-80
2022/05/14 10:54:15;;;;;;;6.80;6.10;;;25.80;97.40;;;;;;5076895;28;20308;-80
2022/05/14 10:56:54;;;;;;;6.57;5.97;;;25.70;98.30;;;;;;5085582;28;20266;-81
2022/05/14 10:59:34;;;;;;;4.97;4.53;;;25.70;99.40;;;;;;5076944;28;20446;-82
2022/05/14 11:02:06;;;;;;;5.13;4.63;;;25.70;97.30;;;;;;5077854;28;20190;-81
2022/05/14 11:04:45;;;;;;;5.30;4.90;;;25.60;97.60;;;;;;5081601;28;20225;-79
2022/05/14 11:07:25;;;;;;;6.27;5.70;;;25.50;97.40;;;;;;5083202;28;20232;-81
2022/05/14 11:09:52;;;;;;;6.83;5.93;;;25.40;97.20;;;;;;5066590;28;20743;-80
2022/05/14 11:12:31;;;;;;;5.53;5.13;;;25.40;97.80;;;;;;5071824;28;20191;-80
2022/05/14 11:15:00;;;;;;;3.20;2.17;;;25.30;96.60;;;;;;5073601;28;20209;-82
2022/05/14 11:17:31;;;;;;;3.07;2.87;;;25.20;96.80;;;;;;5073859;28;20656;-81
2022/05/14 11:20:10;;;;;;;6.57;6.07;;;25.10;96.50;;;;;;5072010;28;20217;-80
2022/05/14 11:22:39;;;;;;;7.60;7.00;;;25.00;98.00;;;;;;5073267;28;20716;-82
2022/05/14 11:25:15;;;;;;;3.90;3.55;;;25.10;97.20;;;;;;5072741;28;20491;-82
2022/05/14 11:27:43;;;;;;;6.60;5.93;;;25.00;96.20;;;;;;5070389;28;20290;-82
2022/05/14 11:30:13;;;;;;;6.83;6.33;;;24.80;96.40;;;;;;5075592;28;20190;-81
2022/05/14 11:32:46;;;;;;;4.70;4.30;;;24.60;96.50;;;;;;5063967;28;20441;-80
2022/05/14 11:35:15;;;;;;;2.70;2.50;;;24.30;95.80;;;;;;5070647;28;20461;-80
2022/05/14 11:37:44;;;;;;;4.17;2.60;;;24.00;95.90;;;;;;5083112;28;20208;-80
2022/05/14 11:40:30;;;;;;;4.07;3.27;;;24.00;98.10;;;;;;5081498;28;20205;-80
2022/05/14 11:43:11;;;;;;;2.30;2.10;;;24.00;97.20;;;;;;5079401;28;20638;-80
2022/05/14 11:45:41;;;;;;;5.53;5.13;;;24.10;96.90;;;;;;5077750;28;20218;-79
2022/05/14 11:48:16;;;;;;;4.53;2.00;;;24.20;96.20;;;;;;5079778;28;20217;-80
2022/05/14 11:50:49;;;;;;;3.17;2.10;;;24.20;96.80;;;;;;5073595;28;20186;-81
2022/05/14 11:53:28;;;;;;;4.37;3.83;;;24.40;96.00;;;;;;5076030;28;20195;-80
2022/05/14 11:56:00;;;;;;;5.20;4.70;;;24.40;95.30;;;;;;5072368;28;20208;-80
2022/05/14 11:58:36;;;;;;;5.27;4.80;;;24.40;95.10;;;;;;5066809;28;20203;-79
2022/05/14 12:01:07;;;;;;;5.80;5.40;;;24.30;93.90;;;;;;5070403;28;20616;-79
2022/05/14 12:03:39;;;;;;;6.03;5.67;;;24.20;94.30;;;;;;5074201;28;20224;-80
2022/05/14 12:06:33;;;;;;;5.50;5.10;;;24.20;91.70;;;;;;5081982;28;20202;-80
2022/05/14 12:09:11;;;;;;;5.00;4.60;;;24.20;91.70;;;;;;5076301;28;20197;-79
2022/05/14 12:11:45;;;;;;;2.20;2.00;;;24.10;91.00;;;;;;5081755;28;20193;-80
2022/05/14 12:14:15;;;;;;;2.63;1.80;;;24.00;88.40;;;;;;5080347;28;20282;-80
2022/05/14 12:16:49;;;;;;;3.07;1.90;;;23.80;90.20;;;;;;5081123;28;20285;-79
2022/05/14 12:19:20;;;;;;;3.33;2.20;;;23.80;90.40;;;;;;5078525;28;20198;-79
2022/05/14 12:21:52;;;;;;;2.23;2.00;;;23.60;90.60;;;;;;5082120;28;20590;-79
2022/05/14 12:24:22;;;;;;;2.00;1.80;;;23.70;91.90;;;;;;5079020;28;20233;-77
2022/05/14 12:26:49;;;;;;;2.73;1.90;;;23.80;93.50;;;;;;5071695;28;20211;-78
2022/05/14 12:29:20;;;;;;;2.27;1.80;;;23.90;93.00;;;;;;5074254;28;20194;-79
2022/05/14 12:34:38;;;;;;;5.03;3.90;;;23.90;92.60;;;;;;5082444;28;20217;-80
2022/05/14 12:37:16;;;;;;;2.20;1.70;;;23.70;91.40;;;;;;5080811;28;20195;-79
2022/05/14 12:39:44;;;;;;;2.97;1.80;;;23.70;92.10;;;;;;5065795;28;20211;-79
2022/05/14 12:42:12;;;;;;;3.07;1.90;;;23.80;92.80;;;;;;5071049;28;20186;-81
2022/05/14 12:44:48;;;;;;;2.03;1.67;;;24.00;92.90;;;;;;5088865;28;20217;-79
2022/05/14 12:47:23;;;;;;;2.17;1.70;;;24.00;92.90;;;;;;5080460;28;20190;-80
2022/05/14 12:49:51;;;;;;;5.70;5.30;;;24.00;92.90;;;;;;5081360;28;20217;-80
2022/05/14 12:52:21;;;;;;;6.27;5.77;;;24.00;93.30;;;;;;5083514;28;20638;-81
2022/05/14 12:54:53;;;;;;;5.37;4.97;;;23.90;92.50;;;;;;5085295;28;20694;-80
2022/05/14 12:57:21;;;;;;;2.27;1.73;;;23.70;91.80;;;;;;5086050;28;20209;-80
2022/05/14 12:59:48;;;;;;;2.13;1.70;;;23.50;91.90;;;;;;5081617;28;20694;-80
2022/05/14 13:02:20;;;;;;;3.40;1.60;;;23.30;92.20;;;;;;5086677;28;20276;-80
2022/05/14 13:04:53;;;;;;;2.60;1.90;;;23.10;91.80;;;;;;5084795;28;20232;-80
2022/05/14 13:07:22;;;;;;;3.40;2.10;;;23.10;93.20;;;;;;5086239;28;20201;-80
2022/05/14 13:09:49;;;;;;;2.80;2.33;;;23.10;92.50;;;;;;5086984;28;20579;-80
2022/05/14 13:12:18;;;;;;;2.10;1.97;;;23.00;92.20;;;;;;5086113;28;20204;-80
2022/05/14 13:14:53;;;;;;;4.87;4.33;;;23.00;94.10;;;;;;5076729;28;20210;-79
2022/05/14 13:17:20;;;;;;;2.90;1.97;;;23.00;92.80;;;;;;5072743;28;20206;-80
2022/05/14 13:19:49;;;;;;;5.00;2.00;;;22.90;92.90;;;;;;5066288;28;20195;-79
2022/05/14 13:22:32;;;;;;;1.90;1.80;;;22.80;93.00;;;;;;5070812;28;20194;-80